Latest Weather Observations for Yunta

IDS60801

Issued at 12:21 pm CDT Sunday 18 November 2018 (issued every 10 minutes, with the page automatically refreshed every 10 minutes)

About weather observations | Map of weather stations | Latest weather observations for SA | Other Formats
Station Details ID: 020062 Name: YUNTA AIRSTRIP Lat: -32.57 Lon: 139.56 Height: 300.0 m
Data from the previous 72 hours. | See also: Recent months at Yunta
Date/Time
CDT
Temp
°C
App
Temp
°C
Dew
Point
°C
Rel
Hum
%
Delta-T
°C
Wind Press
QNH
hPa
Press
MSL
hPa
Rain since
9am
mm
Dir  Spd
km/h
Gust
km/h
Spd
kts
Gust
kts
18/12:00pm 26.8 23.6 -3.9 13 13.5 NNW 4 6 2 3 1016.4 1015.3 0.0
18/11:30am 26.3 22.6 -4.3 13 13.3 NNW 6 11 3 6 1016.9 1015.8 0.0
18/11:00am 25.5 21.9 -3.9 14 12.8 E 6 15 3 8 1017.2 1016.1 0.0
18/10:30am 24.5 21.3 -0.6 19 11.5 ESE 6 13 3 7 1017.5 1016.5 0.0
18/10:00am 22.5 19.1 -0.3 22 10.4 SE 7 15 4 8 1017.7 1016.7 0.0
18/09:30am 20.8 17.7 1.6 28 8.9 SE 7 13 4 7 1017.8 1016.8 0.0
18/09:00am 19.4 16.1 2.7 33 7.9 SSE 9 17 5 9 1017.9 1016.9 0.0
18/08:30am 17.3 14.8 4.9 44 6.0 SSE 7 11 4 6 1017.9 1016.9 0.0
18/08:00am 15.8 13.7 6.5 54 4.6 S 7 11 4 6 1017.8 1016.8 0.0
18/07:30am 14.2 11.8 6.8 61 3.6 S 9 13 5 7 1017.6 1016.6 0.0
18/07:00am 12.4 10.3 6.0 65 3.1 SSW 6 7 3 4 1017.6 1016.6 0.0
18/06:30am 10.0 8.0 4.2 67 2.6 SW 4 6 2 3 1017.5 1016.5 0.0
18/06:00am 9.0 6.4 3.0 66 2.6 SSW 6 6 3 3 1017.3 1016.2 0.0
18/05:30am 9.9 7.4 3.9 66 2.7 SW 6 6 3 3 1017.1 1016.0 0.0
18/05:00am 9.8 7.6 3.1 63 2.9 SW 4 4 2 2 1016.8 1015.7 0.0
18/04:30am 10.3 7.7 3.1 61 3.2 SW 6 6 3 3 1016.8 1015.7 0.0
18/04:00am 10.8 7.8 2.1 55 3.8 SW 7 9 4 5 1016.8 1015.7 0.0
18/03:30am 10.8 7.5 0.2 48 4.4 SW 7 9 4 5 1016.7 1015.6 0.0
18/03:00am 12.0 8.2 -0.5 42 5.2 SW 9 9 5 5 1016.8 1015.7 0.0
18/02:30am 12.3 8.1 -3.9 32 6.2 SW 9 9 5 5 1017.0 1015.9 0.0
18/02:00am 13.0 8.2 -6.5 25 7.1 SW 11 13 6 7 1017.3 1016.2 0.0
18/01:30am 13.7 9.7 -5.9 25 7.3 SW 7 11 4 6 1017.5 1016.5 0.0
18/01:00am 15.4 12.7 -5.6 23 8.0 CALM 0 0 0 0 1017.8 1016.8 0.0
18/12:30am 14.8 11.0 -5.5 24 7.7 WNW 6 6 3 3 1018.0 1017.0 0.0
18/12:00am 16.0 13.3 -5.7 22 8.3 CALM 0 4 0 2 1018.1 1017.1 0.0
 
Date/Time
CDT
Temp
°C
App
Temp
°C
Dew
Point
°C
Rel
Hum
%
Delta-T
°C
Wind Press
QNH
hPa
Press
MSL
hPa
Rain since
9am
mm
Dir  Spd
km/h
Gust
km/h
Spd
kts
Gust
kts
17/11:30pm 19.3 15.1 -4.2 20 9.6 SSE 9 15 5 8 1018.4 1017.4 0.0
17/11:00pm 20.1 15.4 -4.9 18 10.2 SE 11 15 6 8 1018.4 1017.4 0.0
17/10:30pm 21.4 15.6 -4.6 17 10.8 SE 17 24 9 13 1018.3 1017.3 0.0
17/10:00pm 21.7 16.5 -2.9 19 10.6 SSE 15 19 8 10 1018.2 1017.2 0.0
17/09:30pm 21.4 17.1 -1.8 21 10.1 SSE 11 13 6 7 1018.1 1017.1 0.0
17/09:00pm 22.4 18.1 -1.6 20 10.6 SSE 11 15 6 8 1017.8 1016.8 0.0
17/08:30pm 23.3 18.6 -1.6 19 11.1 SSE 13 17 7 9 1017.6 1016.6 0.0
17/08:00pm 24.0 18.8 -2.5 17 11.7 SSE 15 22 8 12 1017.3 1016.2 0.0
17/07:30pm 24.9 19.7 -2.6 16 12.2 SSE 15 22 8 12 1017.1 1016.0 0.0
17/07:00pm 25.6 20.4 -2.9 15 12.7 SE 15 22 8 12 1016.8 1015.7 0.0
17/06:30pm 26.1 20.8 -3.5 14 13.1 SE 15 24 8 13 1016.7 1015.6 0.0
17/06:00pm 26.2 20.5 -3.4 14 13.1 SE 17 28 9 15 1016.4 1015.3 0.0
17/05:30pm 26.1 20.8 -3.5 14 13.1 SSE 15 24 8 13 1016.7 1015.6 0.0
17/05:00pm 26.5 21.7 -2.2 15 13.0 SE 13 28 7 15 1016.7 1015.6 0.0
17/04:30pm 26.4 21.1 -3.2 14 13.2 SSE 15 26 8 14 1016.9 1015.8 0.0
17/04:00pm 26.3 22.4 -1.5 16 12.8 SSE 9 15 5 8 1017.0 1015.9 0.0
17/03:30pm 25.8 21.2 -1.1 17 12.4 SE 13 20 7 11 1017.5 1016.5 0.0
17/03:00pm 25.9 21.4 -0.2 18 12.2 SSE 13 26 7 14 1018.0 1017.0 0.0
17/02:30pm 25.0 20.9 -0.2 19 11.7 SSE 11 22 6 12 1018.5 1017.5 0.0
17/02:00pm 25.0 20.5 -0.2 19 11.7 SSE 13 22 7 12 1019.0 1017.9 0.0
17/01:30pm 24.4 20.4 0.7 21 11.1 ESE 11 24 6 13 1019.6 1018.5 0.0
17/01:00pm 23.4 18.4 1.1 23 10.5 SE 17 26 9 14 1020.0 1018.9 0.0
17/12:30pm 22.3 17.5 2.4 27 9.5 ESE 17 32 9 17 1020.4 1019.4 0.0
17/12:00pm 21.9 17.1 2.6 28 9.2 SE 17 28 9 15 1020.6 1019.6 0.0
17/11:30am 21.0 15.9 2.8 30 8.7 SE 19 28 10 15 1020.9 1019.9 0.0
17/11:00am 20.1 15.0 2.9 32 8.2 SE 19 28 10 15 1021.1 1020.1 0.0
17/10:30am 18.8 13.8 3.4 36 7.3 SSE 19 24 10 13 1021.4 1020.4 0.0
17/10:00am 17.4 12.8 3.7 40 6.5 SE 17 24 9 13 1021.3 1020.3 0.0
17/09:30am 16.0 11.1 4.1 45 5.6 SSE 19 26 10 14 1021.5 1020.5 0.0
17/09:00am 15.2 11.2 5.1 51 4.8 SSE 15 22 8 12 1021.7 1020.7 0.0
17/08:30am 13.7 9.3 4.6 54 4.3 SSE 17 26 9 14 1021.6 1020.6 0.0
17/08:00am 12.5 7.5 4.7 59 3.6 SSE 20 24 11 13 1021.6 1020.6 0.0
17/07:30am 11.7 8.1 4.9 63 3.1 SSE 13 20 7 11 1021.4 1020.4 0.0
17/07:00am 10.8 7.5 4.7 66 2.8 S 11 13 6 7 1021.4 1020.4 0.0
17/06:30am 9.9 7.0 4.5 69 2.4 S 9 13 5 7 1021.0 1020.0 0.0
17/06:00am 9.5 6.5 4.1 69 2.4 S 9 13 5 7 1020.5 1019.5 0.0
17/05:30am 9.7 6.7 3.9 67 2.6 S 9 11 5 6 1020.3 1019.2 0.0
17/05:00am 10.4 7.4 4.3 66 2.8 S 9 13 5 7 1020.2 1019.1 0.0
17/04:30am 11.0 7.3 4.7 65 2.9 S 13 19 7 10 1020.1 1019.0 0.0
17/04:00am 11.4 8.1 4.4 62 3.2 S 11 15 6 8 1020.2 1019.1 0.0
17/03:30am 12.0 8.6 4.0 58 3.6 S 11 17 6 9 1020.2 1019.1 0.0
17/03:00am 12.6 8.8 4.1 56 3.9 SSE 13 22 7 12 1020.3 1019.2 0.0
17/02:30am 13.3 9.1 3.9 53 4.3 S 15 20 8 11 1020.2 1019.1 0.0
17/02:00am 14.0 9.8 3.8 50 4.7 SSE 15 20 8 11 1020.2 1019.1 0.0
17/01:30am 14.8 10.1 3.3 46 5.3 SSE 17 22 9 12 1020.5 1019.5 0.0
17/01:00am 15.5 11.6 3.3 44 5.6 SSE 13 19 7 10 1020.7 1019.7 0.0
17/12:30am 16.2 11.1 2.9 41 6.1 SSE 19 26 10 14 1021.0 1020.0 0.0
17/12:00am 17.0 12.1 2.2 37 6.8 S 17 22 9 12 1021.1 1020.1 0.0
 
Date/Time
CDT
Temp
°C
App
Temp
°C
Dew
Point
°C
Rel
Hum
%
Delta-T
°C
Wind Press
QNH
hPa
Press
MSL
hPa
Rain since
9am
mm
Dir  Spd
km/h
Gust
km/h
Spd
kts
Gust
kts
16/11:30pm 17.9 12.4 1.8 34 7.3 S 20 28 11 15 1021.0 1020.0 0.0
16/11:00pm 19.0 13.4 1.1 30 8.1 SSE 20 28 11 15 1020.8 1019.8 0.0
16/10:30pm 19.7 14.2 0.7 28 8.6 S 19 26 10 14 1020.8 1019.8 0.0
16/10:00pm 20.6 13.0 0.4 26 9.2 S 30 41 16 22 1020.4 1019.4 0.0
16/09:30pm 21.9 14.8 -1.4 21 10.3 S 26 35 14 19 1019.9 1018.8 0.0
16/09:00pm 22.8 16.2 -9.2 11 12.3 SSW 19 26 10 14 1019.3 1018.2 0.0
16/08:30pm 23.6 16.0 -9.8 10 12.8 S 24 33 13 18 1018.8 1017.8 0.0
16/08:00pm 24.4 15.9 -6.8 12 12.8 SSW 30 39 16 21 1018.3 1017.3 0.0
16/07:30pm 25.7 16.8 -6.9 11 13.5 S 32 43 17 23 1017.6 1016.6 0.0
16/07:00pm 27.5 19.4 -6.8 10 14.4 SSW 28 37 15 20 1017.0 1015.9 0.0
16/06:30pm 28.8 21.4 -7.2 9 15.2 SSW 24 32 13 17 1016.6 1015.5 0.0
16/06:00pm 29.1 21.7 -7.0 9 15.3 S 24 37 13 20 1016.4 1015.3 0.0
16/05:30pm 29.8 23.3 -6.4 9 15.6 S 20 37 11 20 1016.2 1015.1 0.0
16/05:00pm 29.8 22.9 -6.4 9 15.7 S 22 32 12 17 1016.2 1015.1 0.0
16/04:30pm 30.7 24.4 -5.8 9 16.1 S 19 26 10 14 1016.2 1015.1 0.0
16/04:00pm 30.0 23.2 -4.9 10 15.5 S 22 35 12 19 1016.2 1015.1 0.0
16/03:30pm 30.8 25.5 -7.2 8 16.3 WSW 13 22 7 12 1016.5 1015.4 0.0
16/03:00pm 29.5 24.8 -5.3 10 15.3 SSW 11 22 6 12 1016.9 1015.8 0.0
16/02:30pm 29.9 24.2 -3.7 11 15.2 WSW 17 28 9 15 1017.4 1016.3 0.0
16/02:00pm 29.2 23.8 -4.3 11 15.0 SW 15 28 8 15 1018.0 1017.0 0.0
16/01:30pm 29.0 24.0 -4.4 11 14.8 WSW 13 26 7 14 1018.4 1017.4 0.0
16/01:00pm 27.8 23.5 -5.3 11 14.4 SW 9 20 5 11 1019.0 1017.9 0.0
16/12:30pm 26.4 21.8 -4.2 13 13.3 WSW 11 22 6 12 1019.5 1018.4 0.0
16/12:00pm 25.9 22.0 -1.8 16 12.6 WNW 9 24 5 13 1019.9 1018.8 0.0
16/11:30am 24.6 21.4 0.8 21 11.2 S 7 19 4 10 1020.3 1019.2 0.0
16/11:00am 23.9 20.8 1.5 23 10.7 WSW 7 17 4 9 1020.7 1019.7 0.0
16/10:30am 21.4 18.7 2.6 29 8.9 SW 6 13 3 7 1020.8 1019.8 0.0
16/10:00am 19.5 16.8 3.6 35 7.6 S 7 13 4 7 1020.9 1019.9 0.0
16/09:30am 17.9 15.4 4.5 41 6.5 SSW 7 13 4 7 1021.0 1020.0 0.0
16/09:00am 16.6 14.3 4.6 45 5.7 SSE 6 9 3 5 1020.9 1019.9 0.0
16/08:30am 15.4 13.2 5.3 51 4.9 S 6 11 3 6 1021.0 1020.0 0.0
16/08:00am 13.9 11.7 5.3 56 4.1 S 6 9 3 5 1021.0 1020.0 0.0
16/07:30am 12.8 10.1 5.5 61 3.5 SSW 9 11 5 6 1021.0 1020.0 0.0
16/07:00am 11.6 9.2 5.3 65 2.9 SW 7 9 4 5 1021.1 1020.1 0.0
16/06:30am 10.3 7.8 4.9 69 2.5 SSW 7 9 4 5 1020.9 1019.9 0.0
16/06:00am 9.9 7.3 4.3 68 2.5 SSW 7 11 4 6 1020.6 1019.6 0.0
16/05:30am 9.9 7.2 3.9 66 2.7 SSW 7 9 4 5 1020.3 1019.2 0.0
16/05:00am 10.7 7.8 4.4 65 2.9 SSW 9 13 5 7 1020.1 1019.0 0.0
16/04:30am 11.4 8.5 4.4 62 3.2 SSW 9 11 5 6 1020.0 1018.9 0.0
16/04:00am 11.4 8.7 3.9 60 3.4 SSW 7 11 4 6 1020.0 1018.9 0.0
16/03:30am 10.9 7.8 1.2 51 4.1 SSW 7 7 4 4 1020.0 1018.9 0.0
16/03:00am 11.5 7.9 0.3 46 4.7 SW 9 11 5 6 1020.1 1019.0 0.0
16/02:30am 11.9 8.1 -3.8 33 6.0 SW 7 9 4 5 1020.2 1019.1 0.0
16/02:00am 15.1 11.5 -1.9 31 7.0 S 7 11 4 6 1020.4 1019.4 0.0
16/01:30am 16.3 11.9 -2.2 28 7.6 SSE 11 19 6 10 1020.5 1019.5 0.0
16/01:00am 16.4 12.6 -3.7 25 8.1 SSE 7 11 4 6 1020.8 1019.8 0.0
16/12:30am 17.1 12.6 -3.1 25 8.3 SSE 11 15 6 8 1020.8 1019.8 0.0
16/12:00am 16.1 12.3 -3.4 26 7.8 SSE 7 9 4 5 1020.9 1019.9 0.0
 
Date/Time
CDT
Temp
°C
App
Temp
°C
Dew
Point
°C
Rel
Hum
%
Delta-T
°C
Wind Press
QNH
hPa
Press
MSL
hPa
Rain since
9am
mm
Dir  Spd
km/h
Gust
km/h
Spd
kts
Gust
kts
15/11:30pm 17.5 13.4 -3.3 24 8.5 S 9 11 5 6 1021.0 1020.0 0.0
15/11:00pm 18.3 13.9 -2.6 24 8.8 SSE 11 13 6 7 1021.1 1020.1 0.0
15/10:30pm 18.7 14.6 -2.8 23 9.0 SSE 9 15 5 8 1021.1 1020.1 0.0
15/10:00pm 19.2 15.2 -2.4 23 9.2 SSE 9 11 5 6 1021.1 1020.1 0.0
15/09:30pm 19.8 15.8 -2.5 22 9.5 SSE 9 11 5 6 1020.8 1019.8 0.0
15/09:00pm 20.9 16.5 -2.2 21 10.0 SE 11 17 6 9 1020.6 1019.6 0.0
15/08:30pm 21.7 16.9 -2.2 20 10.4 SE 13 19 7 10 1020.3 1019.2 0.0
15/08:00pm 22.2 17.9 -1.8 20 10.6 SE 11 17 6 9 1020.1 1019.0 0.0
15/07:30pm 23.3 17.9 -1.6 19 11.1 SE 17 24 9 13 1019.9 1018.8 0.0
15/07:00pm 24.2 18.8 -1.6 18 11.6 SSE 17 24 9 13 1019.6 1018.5 0.0
15/06:30pm 24.9 19.2 -1.0 18 11.8 SSE 19 24 10 13 1019.5 1018.4 0.0
15/06:00pm 25.5 20.0 -2.1 16 12.4 S 17 28 9 15 1019.4 1018.3 0.0
15/05:30pm 26.1 21.0 -1.7 16 12.7 S 15 24 8 13 1019.5 1018.4 0.0
15/05:00pm 25.4 20.0 -1.4 17 12.2 S 17 28 9 15 1019.4 1018.3 0.0
15/04:30pm 25.4 20.1 -0.6 18 12.0 SW 17 30 9 16 1019.5 1018.4 0.0
15/04:00pm 24.8 20.9 1.0 21 11.3 S 11 24 6 13 1019.7 1018.6 0.0
15/03:30pm 24.9 20.2 3.0 24 10.8 SSW 17 26 9 14 1020.0 1018.9 0.0
15/03:00pm 24.6 20.4 3.8 26 10.4 WSW 15 22 8 12 1020.3 1019.2 0.0
15/02:30pm 23.6 19.8 4.0 28 9.7 SE 13 22 7 12 1020.8 1019.8 0.0
15/02:00pm 22.7 18.1 3.8 29 9.3 SSE 17 28 9 15 1021.2 1020.2 0.0
15/01:30pm 22.4 18.2 4.0 30 9.1 S 15 22 8 12 1021.6 1020.6 0.0
15/01:00pm 21.9 18.2 4.5 32 8.6 SSW 13 24 7 13 1021.9 1020.9 0.0
15/12:30pm 21.4 17.0 4.5 33 8.3 S 17 26 9 14 1022.1 1021.1 0.0

Other Formats:

Comma delimited format used in spreadsheet applications
http://www.bom.gov.au/fwo/IDS60801/IDS60801.94684.axf

JavaScript Object Notation format (JSON) in row-major order
http://www.bom.gov.au/fwo/IDS60801/IDS60801.94684.json